sensor_id;sensor_type;location;lat;lon;timestamp;temperature;humidity
23618;DHT22;18207;32.078;34.818;2023-03-21T00:00:53;21.90;45.10
23618;DHT22;18207;32.078;34.818;2023-03-21T00:03:25;21.90;45.10
23618;DHT22;18207;32.078;34.818;2023-03-21T00:05:57;21.90;45.10
23618;DHT22;18207;32.078;34.818;2023-03-21T00:08:27;21.90;45.10
23618;DHT22;18207;32.078;34.818;2023-03-21T00:10:59;21.80;44.90
23618;DHT22;18207;32.078;34.818;2023-03-21T00:13:32;21.80;45.00
23618;DHT22;18207;32.078;34.818;2023-03-21T00:16:24;21.80;45.00
23618;DHT22;18207;32.078;34.818;2023-03-21T00:19:06;21.80;45.00
23618;DHT22;18207;32.078;34.818;2023-03-21T00:21:39;21.80;45.10
23618;DHT22;18207;32.078;34.818;2023-03-21T00:24:29;21.80;45.10
23618;DHT22;18207;32.078;34.818;2023-03-21T00:26:59;21.80;45.20
23618;DHT22;18207;32.078;34.818;2023-03-21T00:29:49;21.80;45.20
23618;DHT22;18207;32.078;34.818;2023-03-21T00:32:21;21.70;45.00
23618;DHT22;18207;32.078;34.818;2023-03-21T00:34:51;21.70;45.00
23618;DHT22;18207;32.078;34.818;2023-03-21T00:37:43;21.70;45.00
23618;DHT22;18207;32.078;34.818;2023-03-21T00:40:13;21.70;45.00
23618;DHT22;18207;32.078;34.818;2023-03-21T00:42:57;21.70;45.00
23618;DHT22;18207;32.078;34.818;2023-03-21T00:45:27;21.60;45.00
23618;DHT22;18207;32.078;34.818;2023-03-21T00:47:58;21.60;45.10
23618;DHT22;18207;32.078;34.818;2023-03-21T00:50:29;21.60;45.10
23618;DHT22;18207;32.078;34.818;2023-03-21T00:53:02;21.60;45.20
23618;DHT22;18207;32.078;34.818;2023-03-21T00:55:33;21.60;45.20
23618;DHT22;18207;32.078;34.818;2023-03-21T00:58:05;21.50;45.10
23618;DHT22;18207;32.078;34.818;2023-03-21T01:00:36;21.50;45.10
23618;DHT22;18207;32.078;34.818;2023-03-21T01:03:10;21.50;45.20
23618;DHT22;18207;32.078;34.818;2023-03-21T01:05:51;21.50;45.20
23618;DHT22;18207;32.078;34.818;2023-03-21T01:08:38;21.50;45.20
23618;DHT22;18207;32.078;34.818;2023-03-21T01:11:21;21.50;45.20
23618;DHT22;18207;32.078;34.818;2023-03-21T01:13:53;21.50;45.20
23618;DHT22;18207;32.078;34.818;2023-03-21T01:16:44;21.50;45.30
23618;DHT22;18207;32.078;34.818;2023-03-21T01:19:17;21.40;45.20
23618;DHT22;18207;32.078;34.818;2023-03-21T01:22:08;21.40;45.20
23618;DHT22;18207;32.078;34.818;2023-03-21T01:24:41;21.40;45.20
23618;DHT22;18207;32.078;34.818;2023-03-21T01:27:21;21.40;45.40
23618;DHT22;18207;32.078;34.818;2023-03-21T01:29:51;21.40;45.40
23618;DHT22;18207;32.078;34.818;2023-03-21T01:32:22;21.40;45.40
23618;DHT22;18207;32.078;34.818;2023-03-21T01:34:52;21.40;45.40
23618;DHT22;18207;32.078;34.818;2023-03-21T01:37:22;21.40;45.40
23618;DHT22;18207;32.078;34.818;2023-03-21T01:39:55;21.30;45.40
23618;DHT22;18207;32.078;34.818;2023-03-21T01:42:25;21.30;45.40
23618;DHT22;18207;32.078;34.818;2023-03-21T01:44:57;21.30;45.30
23618;DHT22;18207;32.078;34.818;2023-03-21T01:47:28;21.30;45.40
23618;DHT22;18207;32.078;34.818;2023-03-21T01:50:01;21.20;45.20
23618;DHT22;18207;32.078;34.818;2023-03-21T01:52:35;21.30;45.40
23618;DHT22;18207;32.078;34.818;2023-03-21T01:55:12;21.20;45.40
23618;DHT22;18207;32.078;34.818;2023-03-21T01:57:46;21.20;45.40
23618;DHT22;18207;32.078;34.818;2023-03-21T02:00:32;21.20;45.40
23618;DHT22;18207;32.078;34.818;2023-03-21T02:03:06;21.20;45.40
23618;DHT22;18207;32.078;34.818;2023-03-21T02:05:59;21.20;45.40
23618;DHT22;18207;32.078;34.818;2023-03-21T02:08:32;21.20;45.40
23618;DHT22;18207;32.078;34.818;2023-03-21T02:11:08;21.10;45.40
23618;DHT22;18207;32.078;34.818;2023-03-21T02:13:39;21.10;45.40
23618;DHT22;18207;32.078;34.818;2023-03-21T02:16:13;21.10;45.40
23618;DHT22;18207;32.078;34.818;2023-03-21T02:18:56;21.10;45.40
23618;DHT22;18207;32.078;34.818;2023-03-21T02:28:36;21.00;45.30
23618;DHT22;18207;32.078;34.818;2023-03-21T02:31:20;21.00;45.30
23618;DHT22;18207;32.078;34.818;2023-03-21T02:37:12;20.90;45.30
23618;DHT22;18207;32.078;34.818;2023-03-21T02:40:06;20.90;45.40
23618;DHT22;18207;32.078;34.818;2023-03-21T02:42:50;20.90;45.40
23618;DHT22;18207;32.078;34.818;2023-03-21T02:45:33;20.90;45.50
23618;DHT22;18207;32.078;34.818;2023-03-21T02:48:10;20.90;45.40
23618;DHT22;18207;32.078;34.818;2023-03-21T02:50:58;20.80;45.40
23618;DHT22;18207;32.078;34.818;2023-03-21T02:53:35;20.80;45.40
23618;DHT22;18207;32.078;34.818;2023-03-21T02:56:09;20.80;45.40
23618;DHT22;18207;32.078;34.818;2023-03-21T02:58:41;20.80;45.40
23618;DHT22;18207;32.078;34.818;2023-03-21T03:01:12;20.80;45.40
23618;DHT22;18207;32.078;34.818;2023-03-21T03:03:43;20.80;45.40
23618;DHT22;18207;32.078;34.818;2023-03-21T03:06:17;20.80;45.40
23618;DHT22;18207;32.078;34.818;2023-03-21T03:09:10;20.70;46.00
23618;DHT22;18207;32.078;34.818;2023-03-21T03:12:00;20.70;45.40
23618;DHT22;18207;32.078;34.818;2023-03-21T03:14:48;20.70;45.40
23618;DHT22;18207;32.078;34.818;2023-03-21T03:17:39;20.70;45.40
23618;DHT22;18207;32.078;34.818;2023-03-21T03:20:34;20.70;45.40
23618;DHT22;18207;32.078;34.818;2023-03-21T03:23:21;20.70;45.40
23618;DHT22;18207;32.078;34.818;2023-03-21T03:26:02;20.60;45.40
23618;DHT22;18207;32.078;34.818;2023-03-21T03:28:41;20.60;45.30
23618;DHT22;18207;32.078;34.818;2023-03-21T03:31:20;20.60;45.40
23618;DHT22;18207;32.078;34.818;2023-03-21T03:33:57;20.50;45.30
23618;DHT22;18207;32.078;34.818;2023-03-21T03:36:34;20.50;45.40
23618;DHT22;18207;32.078;34.818;2023-03-21T03:39:10;20.50;45.40
23618;DHT22;18207;32.078;34.818;2023-03-21T03:41:47;20.50;45.50
23618;DHT22;18207;32.078;34.818;2023-03-21T03:44:41;20.50;45.50
23618;DHT22;18207;32.078;34.818;2023-03-21T03:47:16;20.40;45.40
23618;DHT22;18207;32.078;34.818;2023-03-21T03:50:05;20.40;45.40
23618;DHT22;18207;32.078;34.818;2023-03-21T03:52:45;20.40;45.50
23618;DHT22;18207;32.078;34.818;2023-03-21T03:55:25;20.40;45.50
23618;DHT22;18207;32.078;34.818;2023-03-21T03:58:03;20.40;45.50
23618;DHT22;18207;32.078;34.818;2023-03-21T04:00:48;20.40;45.50
23618;DHT22;18207;32.078;34.818;2023-03-21T04:03:19;20.40;45.50
23618;DHT22;18207;32.078;34.818;2023-03-21T04:05:49;20.40;45.50
23618;DHT22;18207;32.078;34.818;2023-03-21T04:08:20;20.30;45.40
23618;DHT22;18207;32.078;34.818;2023-03-21T04:10:51;20.40;45.60
23618;DHT22;18207;32.078;34.818;2023-03-21T04:13:24;20.30;45.70
23618;DHT22;18207;32.078;34.818;2023-03-21T04:15:54;20.40;45.80
23618;DHT22;18207;32.078;34.818;2023-03-21T04:18:25;20.40;45.80
23618;DHT22;18207;32.078;34.818;2023-03-21T04:20:55;20.40;45.90
23618;DHT22;18207;32.078;34.818;2023-03-21T04:23:26;20.40;45.90
23618;DHT22;18207;32.078;34.818;2023-03-21T04:25:57;20.40;45.90
23618;DHT22;18207;32.078;34.818;2023-03-21T04:28:29;20.40;45.80
23618;DHT22;18207;32.078;34.818;2023-03-21T04:31:00;20.50;46.00
23618;DHT22;18207;32.078;34.818;2023-03-21T04:33:45;20.50;45.90
23618;DHT22;18207;32.078;34.818;2023-03-21T04:36:16;20.50;45.80
23618;DHT22;18207;32.078;34.818;2023-03-21T04:38:55;20.50;45.80
23618;DHT22;18207;32.078;34.818;2023-03-21T04:41:27;20.60;45.90
23618;DHT22;18207;32.078;34.818;2023-03-21T04:44:00;20.50;45.90
23618;DHT22;18207;32.078;34.818;2023-03-21T04:46:30;20.60;46.00
23618;DHT22;18207;32.078;34.818;2023-03-21T04:49:01;20.60;46.00
23618;DHT22;18207;32.078;34.818;2023-03-21T04:51:33;20.70;46.20
23618;DHT22;18207;32.078;34.818;2023-03-21T04:54:04;20.70;46.10
23618;DHT22;18207;32.078;34.818;2023-03-21T04:56:33;20.70;46.20
23618;DHT22;18207;32.078;34.818;2023-03-21T04:59:07;20.80;46.20
23618;DHT22;18207;32.078;34.818;2023-03-21T05:01:40;20.80;46.20
23618;DHT22;18207;32.078;34.818;2023-03-21T05:04:11;20.90;46.40
23618;DHT22;18207;32.078;34.818;2023-03-21T05:06:43;20.90;46.40
23618;DHT22;18207;32.078;34.818;2023-03-21T05:09:14;21.00;46.40
23618;DHT22;18207;32.078;34.818;2023-03-21T05:11:44;21.10;46.40
23618;DHT22;18207;32.078;34.818;2023-03-21T05:14:19;21.20;46.50
23618;DHT22;18207;32.078;34.818;2023-03-21T05:16:50;21.20;46.40
23618;DHT22;18207;32.078;34.818;2023-03-21T05:19:25;21.30;46.40
23618;DHT22;18207;32.078;34.818;2023-03-21T05:22:03;21.40;46.30
23618;DHT22;18207;32.078;34.818;2023-03-21T05:24:35;21.40;46.30
23618;DHT22;18207;32.078;34.818;2023-03-21T05:27:08;21.50;46.40
23618;DHT22;18207;32.078;34.818;2023-03-21T05:29:42;21.60;46.50
23618;DHT22;18207;32.078;34.818;2023-03-21T05:32:12;21.60;46.40
23618;DHT22;18207;32.078;34.818;2023-03-21T05:34:42;21.70;46.40
23618;DHT22;18207;32.078;34.818;2023-03-21T05:37:12;21.80;46.40
23618;DHT22;18207;32.078;34.818;2023-03-21T05:39:43;21.90;46.20
23618;DHT22;18207;32.078;34.818;2023-03-21T05:42:13;21.90;46.00
23618;DHT22;18207;32.078;34.818;2023-03-21T05:44:46;22.00;45.90
23618;DHT22;18207;32.078;34.818;2023-03-21T05:47:17;21.90;45.70
23618;DHT22;18207;32.078;34.818;2023-03-21T05:49:48;22.00;45.70
23618;DHT22;18207;32.078;34.818;2023-03-21T05:52:18;21.90;45.60
23618;DHT22;18207;32.078;34.818;2023-03-21T05:54:49;21.90;45.60
23618;DHT22;18207;32.078;34.818;2023-03-21T05:57:20;21.90;45.60
23618;DHT22;18207;32.078;34.818;2023-03-21T05:59:52;21.90;45.60
23618;DHT22;18207;32.078;34.818;2023-03-21T06:02:26;21.90;45.60
23618;DHT22;18207;32.078;34.818;2023-03-21T06:04:57;21.90;45.60
23618;DHT22;18207;32.078;34.818;2023-03-21T06:07:27;21.90;45.60
23618;DHT22;18207;32.078;34.818;2023-03-21T06:09:58;21.90;45.70
23618;DHT22;18207;32.078;34.818;2023-03-21T06:12:28;21.90;45.90
23618;DHT22;18207;32.078;34.818;2023-03-21T06:15:02;21.90;46.00
23618;DHT22;18207;32.078;34.818;2023-03-21T06:17:32;22.00;46.20
23618;DHT22;18207;32.078;34.818;2023-03-21T06:20:04;22.10;46.30
23618;DHT22;18207;32.078;34.818;2023-03-21T06:22:35;22.10;46.30
23618;DHT22;18207;32.078;34.818;2023-03-21T06:25:07;22.20;46.40
23618;DHT22;18207;32.078;34.818;2023-03-21T06:27:38;22.30;46.50
23618;DHT22;18207;32.078;34.818;2023-03-21T06:30:12;22.40;46.50
23618;DHT22;18207;32.078;34.818;2023-03-21T06:32:44;22.50;46.60
23618;DHT22;18207;32.078;34.818;2023-03-21T06:35:14;22.60;46.60
23618;DHT22;18207;32.078;34.818;2023-03-21T06:37:44;22.70;46.60
23618;DHT22;18207;32.078;34.818;2023-03-21T06:40:16;22.90;46.60
23618;DHT22;18207;32.078;34.818;2023-03-21T06:42:46;22.90;46.40
23618;DHT22;18207;32.078;34.818;2023-03-21T06:45:18;23.00;46.40
23618;DHT22;18207;32.078;34.818;2023-03-21T06:47:48;23.10;46.40
23618;DHT22;18207;32.078;34.818;2023-03-21T06:50:18;23.20;46.40
23618;DHT22;18207;32.078;34.818;2023-03-21T06:52:48;23.20;46.30
23618;DHT22;18207;32.078;34.818;2023-03-21T06:55:19;23.30;46.30
23618;DHT22;18207;32.078;34.818;2023-03-21T06:57:53;23.40;46.30
23618;DHT22;18207;32.078;34.818;2023-03-21T07:00:27;23.50;46.30
23618;DHT22;18207;32.078;34.818;2023-03-21T07:02:58;23.60;46.30
23618;DHT22;18207;32.078;34.818;2023-03-21T07:05:28;23.70;46.30
23618;DHT22;18207;32.078;34.818;2023-03-21T07:07:59;23.70;46.00
23618;DHT22;18207;32.078;34.818;2023-03-21T07:10:29;23.80;46.10
23618;DHT22;18207;32.078;34.818;2023-03-21T07:13:00;23.90;46.10
23618;DHT22;18207;32.078;34.818;2023-03-21T07:15:32;24.00;46.20
23618;DHT22;18207;32.078;34.818;2023-03-21T07:18:05;24.10;46.30
23618;DHT22;18207;32.078;34.818;2023-03-21T07:20:36;24.20;46.10
23618;DHT22;18207;32.078;34.818;2023-03-21T07:23:06;24.20;45.90
23618;DHT22;18207;32.078;34.818;2023-03-21T07:25:37;24.30;45.70
23618;DHT22;18207;32.078;34.818;2023-03-21T07:28:08;24.30;45.70
23618;DHT22;18207;32.078;34.818;2023-03-21T07:30:42;24.30;45.50
23618;DHT22;18207;32.078;34.818;2023-03-21T07:33:12;24.30;45.30
23618;DHT22;18207;32.078;34.818;2023-03-21T07:35:43;24.40;45.30
23618;DHT22;18207;32.078;34.818;2023-03-21T07:38:13;24.40;45.40
23618;DHT22;18207;32.078;34.818;2023-03-21T07:40:45;24.40;45.50
23618;DHT22;18207;32.078;34.818;2023-03-21T07:43:17;24.40;45.50
23618;DHT22;18207;32.078;34.818;2023-03-21T07:45:51;24.50;45.60
23618;DHT22;18207;32.078;34.818;2023-03-21T07:48:26;24.50;45.50
23618;DHT22;18207;32.078;34.818;2023-03-21T07:50:56;24.60;45.40
23618;DHT22;18207;32.078;34.818;2023-03-21T07:53:26;24.60;45.40
23618;DHT22;18207;32.078;34.818;2023-03-21T07:55:57;24.70;45.30
23618;DHT22;18207;32.078;34.818;2023-03-21T07:58:27;24.70;45.30
23618;DHT22;18207;32.078;34.818;2023-03-21T08:00:59;24.80;45.40
23618;DHT22;18207;32.078;34.818;2023-03-21T08:03:30;24.80;45.30
23618;DHT22;18207;32.078;34.818;2023-03-21T08:06:00;24.80;45.20
23618;DHT22;18207;32.078;34.818;2023-03-21T08:08:32;24.90;45.20
23618;DHT22;18207;32.078;34.818;2023-03-21T08:11:03;24.90;45.20
23618;DHT22;18207;32.078;34.818;2023-03-21T08:13:33;25.00;45.20
23618;DHT22;18207;32.078;34.818;2023-03-21T08:16:07;25.00;45.80
23618;DHT22;18207;32.078;34.818;2023-03-21T08:18:38;25.10;45.10
23618;DHT22;18207;32.078;34.818;2023-03-21T08:21:09;25.20;45.10
23618;DHT22;18207;32.078;34.818;2023-03-21T08:23:39;25.20;45.00
23618;DHT22;18207;32.078;34.818;2023-03-21T08:26:13;25.30;45.00
23618;DHT22;18207;32.078;34.818;2023-03-21T08:28:45;25.40;45.00
23618;DHT22;18207;32.078;34.818;2023-03-21T08:31:18;25.30;44.70
23618;DHT22;18207;32.078;34.818;2023-03-21T08:33:49;25.40;44.70
23618;DHT22;18207;32.078;34.818;2023-03-21T08:36:21;25.40;44.50
23618;DHT22;18207;32.078;34.818;2023-03-21T08:38:52;25.40;44.30
23618;DHT22;18207;32.078;34.818;2023-03-21T08:41:31;25.40;44.30
23618;DHT22;18207;32.078;34.818;2023-03-21T08:44:02;25.50;44.30
23618;DHT22;18207;32.078;34.818;2023-03-21T08:46:36;25.40;44.20
23618;DHT22;18207;32.078;34.818;2023-03-21T08:49:06;25.40;44.10
23618;DHT22;18207;32.078;34.818;2023-03-21T08:51:37;25.50;44.10
23618;DHT22;18207;32.078;34.818;2023-03-21T08:54:09;25.40;44.00
23618;DHT22;18207;32.078;34.818;2023-03-21T08:56:48;25.40;44.00
23618;DHT22;18207;32.078;34.818;2023-03-21T08:59:19;25.40;44.10
23618;DHT22;18207;32.078;34.818;2023-03-21T09:01:52;25.40;44.00
23618;DHT22;18207;32.078;34.818;2023-03-21T09:04:22;25.40;44.00
23618;DHT22;18207;32.078;34.818;2023-03-21T09:06:54;25.40;44.20
23618;DHT22;18207;32.078;34.818;2023-03-21T09:09:24;25.40;44.20
23618;DHT22;18207;32.078;34.818;2023-03-21T09:11:54;25.50;44.30
23618;DHT22;18207;32.078;34.818;2023-03-21T09:14:24;25.50;44.20
23618;DHT22;18207;32.078;34.818;2023-03-21T09:16:57;25.50;44.10
23618;DHT22;18207;32.078;34.818;2023-03-21T09:19:27;25.50;44.10
23618;DHT22;18207;32.078;34.818;2023-03-21T09:21:58;25.50;44.20
23618;DHT22;18207;32.078;34.818;2023-03-21T09:24:28;25.60;44.30
23618;DHT22;18207;32.078;34.818;2023-03-21T09:26:58;25.60;44.30
23618;DHT22;18207;32.078;34.818;2023-03-21T09:29:28;25.60;44.30
23618;DHT22;18207;32.078;34.818;2023-03-21T09:32:01;25.70;44.20
23618;DHT22;18207;32.078;34.818;2023-03-21T09:34:33;25.80;44.20
23618;DHT22;18207;32.078;34.818;2023-03-21T09:37:08;25.80;44.10
23618;DHT22;18207;32.078;34.818;2023-03-21T09:39:40;25.90;44.10
23618;DHT22;18207;32.078;34.818;2023-03-21T09:42:23;26.00;44.00
23618;DHT22;18207;32.078;34.818;2023-03-21T09:45:06;26.00;43.80
23618;DHT22;18207;32.078;34.818;2023-03-21T09:47:47;26.10;43.80
23618;DHT22;18207;32.078;34.818;2023-03-21T09:50:23;26.20;43.70
23618;DHT22;18207;32.078;34.818;2023-03-21T09:52:59;26.20;43.50
23618;DHT22;18207;32.078;34.818;2023-03-21T09:55:34;26.30;43.40
23618;DHT22;18207;32.078;34.818;2023-03-21T09:58:14;26.20;43.30
23618;DHT22;18207;32.078;34.818;2023-03-21T10:01:00;26.30;43.20
23618;DHT22;18207;32.078;34.818;2023-03-21T10:03:37;26.30;43.10
23618;DHT22;18207;32.078;34.818;2023-03-21T10:06:12;26.30;43.10
23618;DHT22;18207;32.078;34.818;2023-03-21T10:08:46;26.40;43.10
23618;DHT22;18207;32.078;34.818;2023-03-21T10:11:21;26.40;43.10
23618;DHT22;18207;32.078;34.818;2023-03-21T10:13:58;26.40;43.10
23618;DHT22;18207;32.078;34.818;2023-03-21T10:16:34;26.40;43.00
23618;DHT22;18207;32.078;34.818;2023-03-21T10:19:13;26.40;43.00
23618;DHT22;18207;32.078;34.818;2023-03-21T10:21:49;26.40;42.90
23618;DHT22;18207;32.078;34.818;2023-03-21T10:24:29;26.40;42.90
23618;DHT22;18207;32.078;34.818;2023-03-21T10:27:03;26.50;42.80
23618;DHT22;18207;32.078;34.818;2023-03-21T10:29:40;26.50;42.80
23618;DHT22;18207;32.078;34.818;2023-03-21T10:32:14;26.50;42.70
23618;DHT22;18207;32.078;34.818;2023-03-21T10:34:51;26.50;42.70
23618;DHT22;18207;32.078;34.818;2023-03-21T10:37:28;26.50;42.60
23618;DHT22;18207;32.078;34.818;2023-03-21T10:40:00;26.50;42.60
23618;DHT22;18207;32.078;34.818;2023-03-21T10:42:33;26.50;42.60
23618;DHT22;18207;32.078;34.818;2023-03-21T10:45:14;26.60;42.60
23618;DHT22;18207;32.078;34.818;2023-03-21T10:47:48;26.50;42.40
23618;DHT22;18207;32.078;34.818;2023-03-21T10:50:22;26.50;42.60
23618;DHT22;18207;32.078;34.818;2023-03-21T10:52:59;26.50;42.60
23618;DHT22;18207;32.078;34.818;2023-03-21T10:55:32;26.60;42.60
23618;DHT22;18207;32.078;34.818;2023-03-21T10:58:06;26.60;42.60
23618;DHT22;18207;32.078;34.818;2023-03-21T11:00:40;26.60;42.60
23618;DHT22;18207;32.078;34.818;2023-03-21T11:03:20;26.60;42.60
23618;DHT22;18207;32.078;34.818;2023-03-21T11:06:01;26.60;42.60
23618;DHT22;18207;32.078;34.818;2023-03-21T11:08:38;26.60;42.60
23618;DHT22;18207;32.078;34.818;2023-03-21T11:11:18;26.60;42.50
23618;DHT22;18207;32.078;34.818;2023-03-21T11:13:58;26.70;42.50
23618;DHT22;18207;32.078;34.818;2023-03-21T11:16:37;26.70;42.40
23618;DHT22;18207;32.078;34.818;2023-03-21T11:19:15;26.70;42.40
23618;DHT22;18207;32.078;34.818;2023-03-21T11:21:49;26.70;42.40
23618;DHT22;18207;32.078;34.818;2023-03-21T11:24:19;26.70;42.40
23618;DHT22;18207;32.078;34.818;2023-03-21T11:26:50;26.70;42.40
23618;DHT22;18207;32.078;34.818;2023-03-21T11:29:28;26.70;42.40
23618;DHT22;18207;32.078;34.818;2023-03-21T11:32:01;26.70;42.40
23618;DHT22;18207;32.078;34.818;2023-03-21T11:34:47;26.70;42.30
23618;DHT22;18207;32.078;34.818;2023-03-21T11:37:32;26.70;42.20
23618;DHT22;18207;32.078;34.818;2023-03-21T11:40:19;26.60;42.10
23618;DHT22;18207;32.078;34.818;2023-03-21T11:42:53;26.60;42.10
23618;DHT22;18207;32.078;34.818;2023-03-21T11:45:26;26.60;42.00
23618;DHT22;18207;32.078;34.818;2023-03-21T11:47:58;26.60;42.00
23618;DHT22;18207;32.078;34.818;2023-03-21T11:50:32;26.60;42.10
23618;DHT22;18207;32.078;34.818;2023-03-21T11:53:15;26.60;42.10
23618;DHT22;18207;32.078;34.818;2023-03-21T11:56:15;26.60;42.10
23618;DHT22;18207;32.078;34.818;2023-03-21T11:59:13;26.60;42.00
23618;DHT22;18207;32.078;34.818;2023-03-21T12:02:26;26.60;41.80
23618;DHT22;18207;32.078;34.818;2023-03-21T12:05:26;26.60;41.70
23618;DHT22;18207;32.078;34.818;2023-03-21T12:08:08;26.60;41.70
23618;DHT22;18207;32.078;34.818;2023-03-21T12:10:59;26.50;41.50
23618;DHT22;18207;32.078;34.818;2023-03-21T12:13:47;26.50;41.50
23618;DHT22;18207;32.078;34.818;2023-03-21T12:16:45;26.50;41.50
23618;DHT22;18207;32.078;34.818;2023-03-21T12:19:36;26.40;41.50
23618;DHT22;18207;32.078;34.818;2023-03-21T12:22:29;26.40;41.50
23618;DHT22;18207;32.078;34.818;2023-03-21T12:25:12;26.40;41.50
23618;DHT22;18207;32.078;34.818;2023-03-21T12:27:55;26.40;41.50
23618;DHT22;18207;32.078;34.818;2023-03-21T12:30:43;26.40;41.60
23618;DHT22;18207;32.078;34.818;2023-03-21T12:33:27;26.30;41.50
23618;DHT22;18207;32.078;34.818;2023-03-21T12:36:30;26.30;41.50
23618;DHT22;18207;32.078;34.818;2023-03-21T12:39:19;26.30;41.60
23618;DHT22;18207;32.078;34.818;2023-03-21T12:45:16;26.20;41.60
23618;DHT22;18207;32.078;34.818;2023-03-21T12:47:54;26.20;41.50
23618;DHT22;18207;32.078;34.818;2023-03-21T12:50:31;26.20;41.50
23618;DHT22;18207;32.078;34.818;2023-03-21T12:53:17;26.20;41.50
23618;DHT22;18207;32.078;34.818;2023-03-21T12:56:01;26.10;41.50
23618;DHT22;18207;32.078;34.818;2023-03-21T12:58:44;26.10;41.50
23618;DHT22;18207;32.078;34.818;2023-03-21T13:01:21;26.10;41.50
23618;DHT22;18207;32.078;34.818;2023-03-21T13:04:14;26.10;41.40
23618;DHT22;18207;32.078;34.818;2023-03-21T13:07:02;26.00;41.30
23618;DHT22;18207;32.078;34.818;2023-03-21T13:09:36;25.90;41.20
23618;DHT22;18207;32.078;34.818;2023-03-21T13:12:21;25.90;41.20
23618;DHT22;18207;32.078;34.818;2023-03-21T13:15:20;25.90;41.20
23618;DHT22;18207;32.078;34.818;2023-03-21T13:18:15;25.80;41.20
23618;DHT22;18207;32.078;34.818;2023-03-21T13:21:02;25.80;41.20
23618;DHT22;18207;32.078;34.818;2023-03-21T13:23:39;25.70;41.30
23618;DHT22;18207;32.078;34.818;2023-03-21T13:26:10;25.70;41.30
23618;DHT22;18207;32.078;34.818;2023-03-21T13:28:41;25.70;41.30
23618;DHT22;18207;32.078;34.818;2023-03-21T13:31:17;25.60;41.20
23618;DHT22;18207;32.078;34.818;2023-03-21T13:33:53;25.60;41.30
23618;DHT22;18207;32.078;34.818;2023-03-21T13:36:29;25.60;41.30
23618;DHT22;18207;32.078;34.818;2023-03-21T13:39:05;25.50;41.30
23618;DHT22;18207;32.078;34.818;2023-03-21T13:41:47;25.50;41.40
23618;DHT22;18207;32.078;34.818;2023-03-21T13:44:24;25.50;41.50
23618;DHT22;18207;32.078;34.818;2023-03-21T13:47:05;25.50;41.50
23618;DHT22;18207;32.078;34.818;2023-03-21T13:50:27;25.40;41.40
23618;DHT22;18207;32.078;34.818;2023-03-21T13:53:24;25.40;41.40
23618;DHT22;18207;32.078;34.818;2023-03-21T13:56:07;25.40;41.40
23618;DHT22;18207;32.078;34.818;2023-03-21T13:58:57;25.30;41.50
23618;DHT22;18207;32.078;34.818;2023-03-21T14:01:38;25.30;41.50
23618;DHT22;18207;32.078;34.818;2023-03-21T14:04:13;25.30;41.60
23618;DHT22;18207;32.078;34.818;2023-03-21T14:06:52;25.30;41.70
23618;DHT22;18207;32.078;34.818;2023-03-21T14:09:29;25.20;41.70
23618;DHT22;18207;32.078;34.818;2023-03-21T14:12:07;25.20;41.70
23618;DHT22;18207;32.078;34.818;2023-03-21T14:14:45;25.20;41.80
23618;DHT22;18207;32.078;34.818;2023-03-21T14:17:23;25.20;41.80
23618;DHT22;18207;32.078;34.818;2023-03-21T14:19:56;25.20;41.90
23618;DHT22;18207;32.078;34.818;2023-03-21T14:22:41;25.20;41.90
23618;DHT22;18207;32.078;34.818;2023-03-21T14:25:17;25.10;41.80
23618;DHT22;18207;32.078;34.818;2023-03-21T14:28:16;25.10;41.80
23618;DHT22;18207;32.078;34.818;2023-03-21T14:30:51;25.10;41.80
23618;DHT22;18207;32.078;34.818;2023-03-21T14:33:30;25.10;41.80
23618;DHT22;18207;32.078;34.818;2023-03-21T14:36:08;25.10;41.90
23618;DHT22;18207;32.078;34.818;2023-03-21T14:38:54;25.10;41.90
23618;DHT22;18207;32.078;34.818;2023-03-21T14:41:27;25.10;41.90
23618;DHT22;18207;32.078;34.818;2023-03-21T14:44:11;25.10;41.90
23618;DHT22;18207;32.078;34.818;2023-03-21T14:46:48;25.00;41.80
23618;DHT22;18207;32.078;34.818;2023-03-21T14:49:25;25.00;41.80
23618;DHT22;18207;32.078;34.818;2023-03-21T14:51:58;24.90;41.80
23618;DHT22;18207;32.078;34.818;2023-03-21T14:54:35;25.00;41.90
23618;DHT22;18207;32.078;34.818;2023-03-21T14:57:13;24.90;41.80
23618;DHT22;18207;32.078;34.818;2023-03-21T14:59:49;24.90;41.80
23618;DHT22;18207;32.078;34.818;2023-03-21T15:02:24;24.90;41.90
23618;DHT22;18207;32.078;34.818;2023-03-21T15:04:58;24.80;41.80
23618;DHT22;18207;32.078;34.818;2023-03-21T15:07:37;24.80;41.90
23618;DHT22;18207;32.078;34.818;2023-03-21T15:10:14;24.80;41.90
23618;DHT22;18207;32.078;34.818;2023-03-21T15:12:50;24.80;42.00
23618;DHT22;18207;32.078;34.818;2023-03-21T15:15:25;24.80;42.00
23618;DHT22;18207;32.078;34.818;2023-03-21T15:18:01;24.70;42.00
23618;DHT22;18207;32.078;34.818;2023-03-21T15:20:35;24.70;42.00
23618;DHT22;18207;32.078;34.818;2023-03-21T15:23:10;24.70;42.10
23618;DHT22;18207;32.078;34.818;2023-03-21T15:25:46;24.70;42.20
23618;DHT22;18207;32.078;34.818;2023-03-21T15:28:17;24.60;42.00
23618;DHT22;18207;32.078;34.818;2023-03-21T15:30:48;24.60;42.00
23618;DHT22;18207;32.078;34.818;2023-03-21T15:33:24;24.60;42.10
23618;DHT22;18207;32.078;34.818;2023-03-21T15:35:56;24.60;42.20
23618;DHT22;18207;32.078;34.818;2023-03-21T15:38:33;24.60;42.20
23618;DHT22;18207;32.078;34.818;2023-03-21T15:41:25;24.50;42.10
23618;DHT22;18207;32.078;34.818;2023-03-21T15:44:04;24.50;42.20
23618;DHT22;18207;32.078;34.818;2023-03-21T15:46:43;24.50;42.20
23618;DHT22;18207;32.078;34.818;2023-03-21T15:49:19;24.50;42.20
23618;DHT22;18207;32.078;34.818;2023-03-21T15:51:58;24.50;42.20
23618;DHT22;18207;32.078;34.818;2023-03-21T15:54:40;24.40;42.10
23618;DHT22;18207;32.078;34.818;2023-03-21T15:57:21;24.40;42.20
23618;DHT22;18207;32.078;34.818;2023-03-21T15:59:55;24.40;42.20
23618;DHT22;18207;32.078;34.818;2023-03-21T16:02:39;24.30;42.10
23618;DHT22;18207;32.078;34.818;2023-03-21T16:05:22;24.30;42.20
23618;DHT22;18207;32.078;34.818;2023-03-21T16:07:59;24.30;42.20
23618;DHT22;18207;32.078;34.818;2023-03-21T16:10:36;24.30;42.20
23618;DHT22;18207;32.078;34.818;2023-03-21T16:13:10;24.30;42.30
23618;DHT22;18207;32.078;34.818;2023-03-21T16:15:42;24.30;42.30
23618;DHT22;18207;32.078;34.818;2023-03-21T16:18:14;24.30;42.30
23618;DHT22;18207;32.078;34.818;2023-03-21T16:20:46;24.20;42.20
23618;DHT22;18207;32.078;34.818;2023-03-21T16:23:17;24.20;42.30
23618;DHT22;18207;32.078;34.818;2023-03-21T16:25:47;24.20;42.30